Disclaimer

Please do not use the information listed here in-flight or in-navigation, as they are not provided to us by the airports but are provided by volunteers, so they might be outdated.

Search


Regions


Airport information page

Radio informations:
Tower (TWR) - 119.6 MHz
Automatic Terminal Information Service (ATIS) - 118.025 MHz
BRNO APP - 119.1 MHz

Airport informations:
Latitude: 49° 09' 04.57" N
Longitude: 016° 41' 39.96" E
Elevation: 778 feet - 237 meters
Operating hours: 24 hour operations
Operating agency: Civil government, landing fees and diplomatic clearance may be required
Timezone: UTC+1(+2DT)
Fuel: N/A

Runway information:
10/28 - 8694 x 197 feet< - >2650 x 60 meters

Recent METARs:
LKTB 170700Z VRB02KT CAVOK 00/M04 Q1033 NOSIG
LKTB 170730Z 05004KT 360V090 CAVOK 01/M03 Q1033 NOSIG
LKTB 170800Z 06005KT CAVOK 01/M03 Q1033 NOSIG

Airport on the map: